sensor_id;sensor_type;location;lat;lon;timestamp;P1;durP1;ratioP1;P2;durP2;ratioP2
73428;SDS011;61643;49.564;17.412;2022-08-11T00:02:38;4.45;;;1.92;;
73428;SDS011;61643;49.564;17.412;2022-08-11T00:05:07;3.78;;;1.85;;
73428;SDS011;61643;49.564;17.412;2022-08-11T00:07:44;4.05;;;1.70;;
73428;SDS011;61643;49.564;17.412;2022-08-11T00:10:14;4.07;;;1.75;;
73428;SDS011;61643;49.564;17.412;2022-08-11T00:12:42;3.65;;;1.83;;
73428;SDS011;61643;49.564;17.412;2022-08-11T00:15:14;2.85;;;2.00;;
73428;SDS011;61643;49.564;17.412;2022-08-11T00:17:40;2.40;;;1.83;;
73428;SDS011;61643;49.564;17.412;2022-08-11T00:20:09;4.15;;;1.88;;
73428;SDS011;61643;49.564;17.412;2022-08-11T00:22:38;3.28;;;1.92;;
73428;SDS011;61643;49.564;17.412;2022-08-11T00:25:16;2.88;;;1.75;;
73428;SDS011;61643;49.564;17.412;2022-08-11T00:27:44;4.38;;;1.92;;
73428;SDS011;61643;49.564;17.412;2022-08-11T00:30:12;3.85;;;1.80;;
73428;SDS011;61643;49.564;17.412;2022-08-11T00:32:42;2.35;;;1.70;;
73428;SDS011;61643;49.564;17.412;2022-08-11T00:35:17;4.50;;;1.63;;
73428;SDS011;61643;49.564;17.412;2022-08-11T00:37:51;2.60;;;1.75;;
73428;SDS011;61643;49.564;17.412;2022-08-11T00:40:36;2.78;;;1.75;;
73428;SDS011;61643;49.564;17.412;2022-08-11T00:46:00;6.78;;;2.20;;
73428;SDS011;61643;49.564;17.412;2022-08-11T00:56:56;3.70;;;1.95;;
73428;SDS011;61643;49.564;17.412;2022-08-11T01:05:33;5.00;;;2.10;;
73428;SDS011;61643;49.564;17.412;2022-08-11T01:25:56;3.72;;;1.90;;
73428;SDS011;61643;49.564;17.412;2022-08-11T01:39:30;5.10;;;1.92;;
73428;SDS011;61643;49.564;17.412;2022-08-11T01:45:28;4.15;;;1.83;;
73428;SDS011;61643;49.564;17.412;2022-08-11T01:48:13;4.10;;;1.77;;
73428;SDS011;61643;49.564;17.412;2022-08-11T01:50:53;2.50;;;1.80;;
73428;SDS011;61643;49.564;17.412;2022-08-11T02:13:22;3.22;;;1.95;;
73428;SDS011;61643;49.564;17.412;2022-08-11T02:16:12;3.30;;;2.00;;
73428;SDS011;61643;49.564;17.412;2022-08-11T02:25:21;2.75;;;2.10;;
73428;SDS011;61643;49.564;17.412;2022-08-11T02:30:31;3.90;;;2.10;;
73428;SDS011;61643;49.564;17.412;2022-08-11T02:33:14;4.45;;;2.35;;
73428;SDS011;61643;49.564;17.412;2022-08-11T02:38:48;5.63;;;2.17;;
73428;SDS011;61643;49.564;17.412;2022-08-11T02:41:35;2.60;;;1.65;;
73428;SDS011;61643;49.564;17.412;2022-08-11T02:50:41;3.75;;;2.05;;
73428;SDS011;61643;49.564;17.412;2022-08-11T02:53:16;4.00;;;2.20;;
73428;SDS011;61643;49.564;17.412;2022-08-11T02:56:00;3.47;;;2.10;;
73428;SDS011;61643;49.564;17.412;2022-08-11T03:18:40;4.38;;;1.92;;
73428;SDS011;61643;49.564;17.412;2022-08-11T03:29:03;3.60;;;2.15;;
73428;SDS011;61643;49.564;17.412;2022-08-11T03:31:34;4.72;;;2.10;;
73428;SDS011;61643;49.564;17.412;2022-08-11T03:34:08;3.28;;;2.10;;
73428;SDS011;61643;49.564;17.412;2022-08-11T03:42:17;7.22;;;2.15;;
73428;SDS011;61643;49.564;17.412;2022-08-11T04:24:57;3.35;;;2.35;;
73428;SDS011;61643;49.564;17.412;2022-08-11T04:31:02;4.07;;;2.28;;
73428;SDS011;61643;49.564;17.412;2022-08-11T04:51:51;4.75;;;2.25;;
73428;SDS011;61643;49.564;17.412;2022-08-11T05:01:39;4.80;;;2.03;;
73428;SDS011;61643;49.564;17.412;2022-08-11T05:04:40;6.07;;;2.30;;
73428;SDS011;61643;49.564;17.412;2022-08-11T05:13:04;3.65;;;2.10;;
73428;SDS011;61643;49.564;17.412;2022-08-11T05:15:50;5.13;;;2.17;;
73428;SDS011;61643;49.564;17.412;2022-08-11T05:18:55;4.28;;;2.00;;
73428;SDS011;61643;49.564;17.412;2022-08-11T05:21:41;6.70;;;2.20;;
73428;SDS011;61643;49.564;17.412;2022-08-11T05:24:43;3.42;;;1.90;;
73428;SDS011;61643;49.564;17.412;2022-08-11T05:27:43;6.28;;;2.33;;
73428;SDS011;61643;49.564;17.412;2022-08-11T05:30:32;6.03;;;1.90;;
73428;SDS011;61643;49.564;17.412;2022-08-11T05:33:44;6.88;;;2.40;;
73428;SDS011;61643;49.564;17.412;2022-08-11T05:41:48;4.05;;;2.05;;
73428;SDS011;61643;49.564;17.412;2022-08-11T05:44:33;3.80;;;1.80;;
73428;SDS011;61643;49.564;17.412;2022-08-11T05:47:25;4.13;;;1.85;;
73428;SDS011;61643;49.564;17.412;2022-08-11T05:50:10;4.20;;;1.67;;
73428;SDS011;61643;49.564;17.412;2022-08-11T05:52:56;3.17;;;2.00;;
73428;SDS011;61643;49.564;17.412;2022-08-11T05:55:42;4.80;;;2.03;;
73428;SDS011;61643;49.564;17.412;2022-08-11T05:58:31;2.67;;;1.77;;
73428;SDS011;61643;49.564;17.412;2022-08-11T06:00:58;3.40;;;1.83;;
73428;SDS011;61643;49.564;17.412;2022-08-11T06:03:25;3.35;;;1.92;;
73428;SDS011;61643;49.564;17.412;2022-08-11T06:05:53;6.38;;;1.92;;
73428;SDS011;61643;49.564;17.412;2022-08-11T06:08:27;4.25;;;2.10;;
73428;SDS011;61643;49.564;17.412;2022-08-11T06:10:59;4.30;;;2.20;;
73428;SDS011;61643;49.564;17.412;2022-08-11T06:13:27;2.97;;;1.83;;
73428;SDS011;61643;49.564;17.412;2022-08-11T06:15:53;3.00;;;1.95;;
73428;SDS011;61643;49.564;17.412;2022-08-11T06:18:20;1.98;;;1.58;;
73428;SDS011;61643;49.564;17.412;2022-08-11T06:20:47;3.97;;;1.95;;
73428;SDS011;61643;49.564;17.412;2022-08-11T06:23:15;5.38;;;2.05;;
73428;SDS011;61643;49.564;17.412;2022-08-11T06:25:43;5.35;;;2.17;;
73428;SDS011;61643;49.564;17.412;2022-08-11T06:28:09;3.90;;;2.03;;
73428;SDS011;61643;49.564;17.412;2022-08-11T06:30:37;5.10;;;2.20;;
73428;SDS011;61643;49.564;17.412;2022-08-11T06:33:10;3.70;;;1.90;;
73428;SDS011;61643;49.564;17.412;2022-08-11T06:39:10;5.55;;;2.40;;
73428;SDS011;61643;49.564;17.412;2022-08-11T06:41:37;4.78;;;2.17;;
73428;SDS011;61643;49.564;17.412;2022-08-11T06:46:39;4.85;;;2.10;;
73428;SDS011;61643;49.564;17.412;2022-08-11T06:49:07;7.38;;;2.67;;
73428;SDS011;61643;49.564;17.412;2022-08-11T06:51:55;7.25;;;2.63;;
73428;SDS011;61643;49.564;17.412;2022-08-11T06:54:29;4.47;;;2.05;;
73428;SDS011;61643;49.564;17.412;2022-08-11T06:56:58;6.72;;;2.58;;
73428;SDS011;61643;49.564;17.412;2022-08-11T06:59:44;5.60;;;2.53;;
73428;SDS011;61643;49.564;17.412;2022-08-11T07:14:09;6.25;;;2.20;;
73428;SDS011;61643;49.564;17.412;2022-08-11T07:16:54;5.10;;;2.10;;
73428;SDS011;61643;49.564;17.412;2022-08-11T07:19:26;4.47;;;1.90;;
73428;SDS011;61643;49.564;17.412;2022-08-11T07:22:12;4.32;;;2.00;;
73428;SDS011;61643;49.564;17.412;2022-08-11T07:25:02;3.38;;;2.17;;
73428;SDS011;61643;49.564;17.412;2022-08-11T07:28:04;3.28;;;2.15;;
73428;SDS011;61643;49.564;17.412;2022-08-11T07:30:52;3.38;;;2.20;;
73428;SDS011;61643;49.564;17.412;2022-08-11T07:33:24;5.00;;;2.28;;
73428;SDS011;61643;49.564;17.412;2022-08-11T07:35:55;6.00;;;2.30;;
73428;SDS011;61643;49.564;17.412;2022-08-11T07:38:24;4.03;;;1.75;;
73428;SDS011;61643;49.564;17.412;2022-08-11T07:41:14;3.70;;;2.00;;
73428;SDS011;61643;49.564;17.412;2022-08-11T07:43:42;2.78;;;2.00;;
73428;SDS011;61643;49.564;17.412;2022-08-11T07:46:13;4.22;;;1.63;;
73428;SDS011;61643;49.564;17.412;2022-08-11T07:48:58;4.47;;;2.05;;
73428;SDS011;61643;49.564;17.412;2022-08-11T07:51:42;4.38;;;1.95;;
73428;SDS011;61643;49.564;17.412;2022-08-11T07:54:27;5.18;;;1.88;;
73428;SDS011;61643;49.564;17.412;2022-08-11T07:56:54;3.65;;;1.60;;
73428;SDS011;61643;49.564;17.412;2022-08-11T07:59:23;4.75;;;1.80;;
73428;SDS011;61643;49.564;17.412;2022-08-11T08:02:08;2.10;;;1.58;;
73428;SDS011;61643;49.564;17.412;2022-08-11T08:04:55;4.35;;;1.90;;
73428;SDS011;61643;49.564;17.412;2022-08-11T08:07:41;4.93;;;1.95;;
73428;SDS011;61643;49.564;17.412;2022-08-11T08:10:26;7.18;;;2.00;;
73428;SDS011;61643;49.564;17.412;2022-08-11T08:13:11;2.15;;;1.60;;
73428;SDS011;61643;49.564;17.412;2022-08-11T08:15:55;3.20;;;1.90;;
73428;SDS011;61643;49.564;17.412;2022-08-11T08:18:39;4.13;;;1.70;;
73428;SDS011;61643;49.564;17.412;2022-08-11T08:21:06;2.85;;;1.35;;
73428;SDS011;61643;49.564;17.412;2022-08-11T08:23:43;3.75;;;1.60;;
73428;SDS011;61643;49.564;17.412;2022-08-11T08:26:11;12.18;;;2.00;;
73428;SDS011;61643;49.564;17.412;2022-08-11T08:28:57;2.63;;;1.55;;
73428;SDS011;61643;49.564;17.412;2022-08-11T08:31:45;4.90;;;1.73;;
73428;SDS011;61643;49.564;17.412;2022-08-11T08:34:12;2.63;;;1.60;;
73428;SDS011;61643;49.564;17.412;2022-08-11T08:36:41;5.30;;;1.75;;
73428;SDS011;61643;49.564;17.412;2022-08-11T08:39:08;2.97;;;1.63;;
73428;SDS011;61643;49.564;17.412;2022-08-11T08:41:37;2.10;;;1.83;;
73428;SDS011;61643;49.564;17.412;2022-08-11T08:44:07;3.55;;;1.80;;
73428;SDS011;61643;49.564;17.412;2022-08-11T08:46:36;7.25;;;1.95;;
73428;SDS011;61643;49.564;17.412;2022-08-11T08:49:07;3.08;;;1.63;;
73428;SDS011;61643;49.564;17.412;2022-08-11T08:54:13;3.38;;;1.48;;
73428;SDS011;61643;49.564;17.412;2022-08-11T08:56:43;3.58;;;1.58;;
73428;SDS011;61643;49.564;17.412;2022-08-11T08:59:10;3.13;;;1.35;;
73428;SDS011;61643;49.564;17.412;2022-08-11T09:04:38;3.33;;;1.70;;
73428;SDS011;61643;49.564;17.412;2022-08-11T09:07:08;4.47;;;1.50;;
73428;SDS011;61643;49.564;17.412;2022-08-11T09:09:46;4.80;;;1.67;;
73428;SDS011;61643;49.564;17.412;2022-08-11T09:12:13;4.20;;;1.77;;
73428;SDS011;61643;49.564;17.412;2022-08-11T09:14:42;1.58;;;1.35;;
73428;SDS011;61643;49.564;17.412;2022-08-11T09:17:33;3.03;;;1.50;;
73428;SDS011;61643;49.564;17.412;2022-08-11T09:20:11;3.63;;;1.52;;
73428;SDS011;61643;49.564;17.412;2022-08-11T09:22:40;4.90;;;1.63;;
73428;SDS011;61643;49.564;17.412;2022-08-11T09:25:26;3.47;;;1.65;;
73428;SDS011;61643;49.564;17.412;2022-08-11T09:28:13;3.80;;;1.42;;
73428;SDS011;61643;49.564;17.412;2022-08-11T09:30:41;3.85;;;1.88;;
73428;SDS011;61643;49.564;17.412;2022-08-11T09:33:09;3.72;;;1.80;;
73428;SDS011;61643;49.564;17.412;2022-08-11T09:35:37;1.95;;;1.48;;
73428;SDS011;61643;49.564;17.412;2022-08-11T09:38:08;2.38;;;1.38;;
73428;SDS011;61643;49.564;17.412;2022-08-11T09:40:54;3.53;;;1.40;;
73428;SDS011;61643;49.564;17.412;2022-08-11T09:43:21;4.40;;;1.45;;
73428;SDS011;61643;49.564;17.412;2022-08-11T09:46:06;2.58;;;1.10;;
73428;SDS011;61643;49.564;17.412;2022-08-11T09:48:35;4.95;;;2.30;;
73428;SDS011;61643;49.564;17.412;2022-08-11T09:51:04;3.05;;;1.60;;
73428;SDS011;61643;49.564;17.412;2022-08-11T09:53:32;3.10;;;1.70;;
73428;SDS011;61643;49.564;17.412;2022-08-11T09:56:01;2.58;;;1.42;;
73428;SDS011;61643;49.564;17.412;2022-08-11T09:58:50;2.53;;;1.40;;
73428;SDS011;61643;49.564;17.412;2022-08-11T10:01:18;2.33;;;1.50;;
73428;SDS011;61643;49.564;17.412;2022-08-11T10:04:05;2.53;;;1.40;;
73428;SDS011;61643;49.564;17.412;2022-08-11T10:06:40;3.97;;;1.90;;
73428;SDS011;61643;49.564;17.412;2022-08-11T10:09:25;4.78;;;1.55;;
73428;SDS011;61643;49.564;17.412;2022-08-11T10:11:58;2.95;;;1.60;;
73428;SDS011;61643;49.564;17.412;2022-08-11T10:14:27;3.22;;;1.75;;
73428;SDS011;61643;49.564;17.412;2022-08-11T10:17:13;4.05;;;1.90;;
73428;SDS011;61643;49.564;17.412;2022-08-11T10:19:41;5.85;;;2.03;;
73428;SDS011;61643;49.564;17.412;2022-08-11T10:22:09;4.80;;;1.60;;
73428;SDS011;61643;49.564;17.412;2022-08-11T10:24:54;2.85;;;1.80;;
73428;SDS011;61643;49.564;17.412;2022-08-11T10:27:40;7.20;;;2.10;;
73428;SDS011;61643;49.564;17.412;2022-08-11T10:30:07;5.10;;;2.00;;
73428;SDS011;61643;49.564;17.412;2022-08-11T10:32:53;2.85;;;1.70;;
73428;SDS011;61643;49.564;17.412;2022-08-11T10:35:37;4.30;;;1.90;;
73428;SDS011;61643;49.564;17.412;2022-08-11T10:38:05;2.28;;;1.60;;
73428;SDS011;61643;49.564;17.412;2022-08-11T10:40:31;2.55;;;1.50;;
73428;SDS011;61643;49.564;17.412;2022-08-11T10:42:57;4.18;;;1.90;;
73428;SDS011;61643;49.564;17.412;2022-08-11T10:45:31;3.10;;;1.80;;
73428;SDS011;61643;49.564;17.412;2022-08-11T10:48:18;1.75;;;1.58;;
73428;SDS011;61643;49.564;17.412;2022-08-11T10:50:46;2.67;;;1.58;;
73428;SDS011;61643;49.564;17.412;2022-08-11T10:53:32;3.03;;;1.58;;
73428;SDS011;61643;49.564;17.412;2022-08-11T10:56:20;4.00;;;1.85;;
73428;SDS011;61643;49.564;17.412;2022-08-11T11:01:39;2.40;;;1.60;;
73428;SDS011;61643;49.564;17.412;2022-08-11T11:04:07;4.20;;;1.65;;
73428;SDS011;61643;49.564;17.412;2022-08-11T11:06:49;6.50;;;1.90;;
73428;SDS011;61643;49.564;17.412;2022-08-11T11:09:24;3.05;;;2.00;;
73428;SDS011;61643;49.564;17.412;2022-08-11T11:12:02;3.47;;;1.95;;
73428;SDS011;61643;49.564;17.412;2022-08-11T11:14:52;2.70;;;2.00;;
73428;SDS011;61643;49.564;17.412;2022-08-11T11:18:04;3.72;;;1.90;;
73428;SDS011;61643;49.564;17.412;2022-08-11T11:20:38;4.28;;;2.00;;
73428;SDS011;61643;49.564;17.412;2022-08-11T11:37:13;4.05;;;2.30;;
73428;SDS011;61643;49.564;17.412;2022-08-11T11:39:40;3.50;;;2.13;;
73428;SDS011;61643;49.564;17.412;2022-08-11T11:42:08;2.85;;;2.05;;
73428;SDS011;61643;49.564;17.412;2022-08-11T11:44:36;2.95;;;1.80;;
73428;SDS011;61643;49.564;17.412;2022-08-11T11:47:02;5.75;;;1.67;;
73428;SDS011;61643;49.564;17.412;2022-08-11T11:49:30;3.60;;;1.52;;
73428;SDS011;61643;49.564;17.412;2022-08-11T11:51:57;3.28;;;1.33;;
73428;SDS011;61643;49.564;17.412;2022-08-11T11:54:24;1.98;;;1.30;;
73428;SDS011;61643;49.564;17.412;2022-08-11T11:56:52;1.85;;;1.30;;
73428;SDS011;61643;49.564;17.412;2022-08-11T11:59:23;2.85;;;1.13;;
73428;SDS011;61643;49.564;17.412;2022-08-11T12:02:10;1.52;;;1.20;;
73428;SDS011;61643;49.564;17.412;2022-08-11T12:04:39;1.73;;;1.27;;
73428;SDS011;61643;49.564;17.412;2022-08-11T12:07:07;7.60;;;1.30;;
73428;SDS011;61643;49.564;17.412;2022-08-11T12:09:52;2.95;;;1.50;;
73428;SDS011;61643;49.564;17.412;2022-08-11T12:12:19;3.03;;;1.40;;
73428;SDS011;61643;49.564;17.412;2022-08-11T12:15:04;2.88;;;1.50;;
73428;SDS011;61643;49.564;17.412;2022-08-11T12:17:31;2.20;;;1.30;;
73428;SDS011;61643;49.564;17.412;2022-08-11T12:19:56;2.28;;;1.70;;
73428;SDS011;61643;49.564;17.412;2022-08-11T12:22:22;4.88;;;1.85;;
73428;SDS011;61643;49.564;17.412;2022-08-11T12:25:07;3.78;;;1.70;;
73428;SDS011;61643;49.564;17.412;2022-08-11T12:27:52;5.00;;;1.70;;
73428;SDS011;61643;49.564;17.412;2022-08-11T12:30:19;4.95;;;1.60;;
73428;SDS011;61643;49.564;17.412;2022-08-11T12:32:44;3.72;;;1.67;;
73428;SDS011;61643;49.564;17.412;2022-08-11T12:35:13;2.85;;;1.98;;
73428;SDS011;61643;49.564;17.412;2022-08-11T12:37:41;3.40;;;1.70;;
73428;SDS011;61643;49.564;17.412;2022-08-11T12:40:13;5.20;;;1.75;;
73428;SDS011;61643;49.564;17.412;2022-08-11T12:43:01;3.28;;;1.73;;
73428;SDS011;61643;49.564;17.412;2022-08-11T12:45:47;3.97;;;1.80;;
73428;SDS011;61643;49.564;17.412;2022-08-11T12:48:22;3.20;;;1.95;;
73428;SDS011;61643;49.564;17.412;2022-08-11T12:51:11;2.88;;;1.80;;
73428;SDS011;61643;49.564;17.412;2022-08-11T12:56:43;5.22;;;2.10;;
73428;SDS011;61643;49.564;17.412;2022-08-11T12:59:50;2.30;;;1.40;;
73428;SDS011;61643;49.564;17.412;2022-08-11T13:05:19;5.65;;;1.30;;
73428;SDS011;61643;49.564;17.412;2022-08-11T13:07:46;2.72;;;1.60;;
73428;SDS011;61643;49.564;17.412;2022-08-11T13:10:16;1.70;;;1.33;;
73428;SDS011;61643;49.564;17.412;2022-08-11T13:13:03;1.80;;;1.30;;
73428;SDS011;61643;49.564;17.412;2022-08-11T13:15:31;2.53;;;1.70;;
73428;SDS011;61643;49.564;17.412;2022-08-11T13:18:00;2.72;;;1.50;;
73428;SDS011;61643;49.564;17.412;2022-08-11T13:20:26;4.10;;;1.50;;
73428;SDS011;61643;49.564;17.412;2022-08-11T13:22:53;2.05;;;1.50;;
73428;SDS011;61643;49.564;17.412;2022-08-11T13:25:23;3.03;;;1.75;;
73428;SDS011;61643;49.564;17.412;2022-08-11T13:27:52;1.90;;;1.30;;
73428;SDS011;61643;49.564;17.412;2022-08-11T13:30:21;3.85;;;1.65;;
73428;SDS011;61643;49.564;17.412;2022-08-11T13:33:10;2.78;;;1.85;;
73428;SDS011;61643;49.564;17.412;2022-08-11T13:35:36;2.10;;;1.60;;
73428;SDS011;61643;49.564;17.412;2022-08-11T13:38:03;2.80;;;1.77;;
73428;SDS011;61643;49.564;17.412;2022-08-11T13:40:29;3.67;;;1.80;;
73428;SDS011;61643;49.564;17.412;2022-08-11T13:42:56;3.10;;;1.75;;
73428;SDS011;61643;49.564;17.412;2022-08-11T13:45:23;5.20;;;1.70;;
73428;SDS011;61643;49.564;17.412;2022-08-11T13:47:56;6.15;;;2.33;;
73428;SDS011;61643;49.564;17.412;2022-08-11T13:50:23;4.20;;;1.75;;
73428;SDS011;61643;49.564;17.412;2022-08-11T13:53:09;5.53;;;1.90;;
73428;SDS011;61643;49.564;17.412;2022-08-11T13:55:36;2.75;;;1.73;;
73428;SDS011;61643;49.564;17.412;2022-08-11T13:58:06;2.95;;;1.75;;
73428;SDS011;61643;49.564;17.412;2022-08-11T14:00:34;2.63;;;1.60;;
73428;SDS011;61643;49.564;17.412;2022-08-11T14:03:01;2.47;;;1.65;;
73428;SDS011;61643;49.564;17.412;2022-08-11T14:05:39;3.10;;;1.67;;
73428;SDS011;61643;49.564;17.412;2022-08-11T14:08:11;5.50;;;1.98;;
73428;SDS011;61643;49.564;17.412;2022-08-11T14:10:39;7.38;;;1.67;;
73428;SDS011;61643;49.564;17.412;2022-08-11T14:13:06;2.65;;;1.50;;
73428;SDS011;61643;49.564;17.412;2022-08-11T14:15:53;3.47;;;1.50;;
73428;SDS011;61643;49.564;17.412;2022-08-11T14:18:26;3.42;;;1.40;;
73428;SDS011;61643;49.564;17.412;2022-08-11T14:20:57;3.90;;;1.50;;
73428;SDS011;61643;49.564;17.412;2022-08-11T14:23:49;3.97;;;1.67;;
73428;SDS011;61643;49.564;17.412;2022-08-11T14:26:19;2.00;;;1.35;;
73428;SDS011;61643;49.564;17.412;2022-08-11T14:28:59;1.65;;;1.38;;
73428;SDS011;61643;49.564;17.412;2022-08-11T14:31:28;6.10;;;1.65;;
73428;SDS011;61643;49.564;17.412;2022-08-11T14:33:56;3.25;;;1.80;;
73428;SDS011;61643;49.564;17.412;2022-08-11T14:36:27;5.22;;;1.48;;
73428;SDS011;61643;49.564;17.412;2022-08-11T14:38:56;5.28;;;1.92;;
73428;SDS011;61643;49.564;17.412;2022-08-11T14:41:22;3.25;;;1.83;;
73428;SDS011;61643;49.564;17.412;2022-08-11T14:44:08;3.95;;;1.75;;
73428;SDS011;61643;49.564;17.412;2022-08-11T14:46:53;3.00;;;1.60;;
73428;SDS011;61643;49.564;17.412;2022-08-11T14:49:33;4.65;;;1.40;;
73428;SDS011;61643;49.564;17.412;2022-08-11T14:52:02;3.05;;;1.70;;
73428;SDS011;61643;49.564;17.412;2022-08-11T14:54:30;3.80;;;1.70;;
73428;SDS011;61643;49.564;17.412;2022-08-11T14:57:16;5.72;;;1.52;;
73428;SDS011;61643;49.564;17.412;2022-08-11T14:59:44;3.30;;;1.73;;
73428;SDS011;61643;49.564;17.412;2022-08-11T15:02:14;5.13;;;1.50;;
73428;SDS011;61643;49.564;17.412;2022-08-11T15:05:00;2.75;;;1.85;;
73428;SDS011;61643;49.564;17.412;2022-08-11T15:09:54;4.63;;;1.60;;
73428;SDS011;61643;49.564;17.412;2022-08-11T15:12:21;2.05;;;1.40;;
73428;SDS011;61643;49.564;17.412;2022-08-11T15:14:48;2.38;;;1.38;;
73428;SDS011;61643;49.564;17.412;2022-08-11T15:17:33;1.90;;;1.42;;
73428;SDS011;61643;49.564;17.412;2022-08-11T15:20:02;2.13;;;1.30;;
73428;SDS011;61643;49.564;17.412;2022-08-11T15:22:48;2.78;;;1.30;;
73428;SDS011;61643;49.564;17.412;2022-08-11T15:25:33;1.20;;;1.05;;
73428;SDS011;61643;49.564;17.412;2022-08-11T15:30:46;1.60;;;1.20;;
73428;SDS011;61643;49.564;17.412;2022-08-11T15:33:31;3.42;;;1.30;;
73428;SDS011;61643;49.564;17.412;2022-08-11T15:36:20;1.33;;;1.10;;
73428;SDS011;61643;49.564;17.412;2022-08-11T15:39:27;3.28;;;1.30;;
73428;SDS011;61643;49.564;17.412;2022-08-11T15:42:06;1.73;;;1.30;;
73428;SDS011;61643;49.564;17.412;2022-08-11T15:44:56;1.90;;;1.40;;
73428;SDS011;61643;49.564;17.412;2022-08-11T15:47:49;2.50;;;1.30;;
73428;SDS011;61643;49.564;17.412;2022-08-11T15:50:21;1.83;;;1.33;;
73428;SDS011;61643;49.564;17.412;2022-08-11T15:52:55;2.45;;;1.40;;
73428;SDS011;61643;49.564;17.412;2022-08-11T15:55:23;2.05;;;1.08;;
73428;SDS011;61643;49.564;17.412;2022-08-11T15:57:50;2.20;;;1.10;;
73428;SDS011;61643;49.564;17.412;2022-08-11T16:00:37;1.83;;;1.00;;
73428;SDS011;61643;49.564;17.412;2022-08-11T16:03:24;1.10;;;1.00;;
73428;SDS011;61643;49.564;17.412;2022-08-11T16:06:10;4.65;;;1.30;;
73428;SDS011;61643;49.564;17.412;2022-08-11T16:11:04;1.85;;;1.00;;
73428;SDS011;61643;49.564;17.412;2022-08-11T16:13:31;1.90;;;1.10;;
73428;SDS011;61643;49.564;17.412;2022-08-11T16:16:00;1.40;;;0.90;;
73428;SDS011;61643;49.564;17.412;2022-08-11T16:23:51;1.33;;;1.17;;
73428;SDS011;61643;49.564;17.412;2022-08-11T16:26:20;3.00;;;1.02;;
73428;SDS011;61643;49.564;17.412;2022-08-11T16:28:49;1.52;;;1.20;;
73428;SDS011;61643;49.564;17.412;2022-08-11T16:31:16;2.63;;;1.00;;
73428;SDS011;61643;49.564;17.412;2022-08-11T16:33:45;2.30;;;1.05;;
73428;SDS011;61643;49.564;17.412;2022-08-11T16:36:12;1.40;;;0.90;;
73428;SDS011;61643;49.564;17.412;2022-08-11T16:38:58;4.30;;;1.10;;
73428;SDS011;61643;49.564;17.412;2022-08-11T16:41:26;2.63;;;1.00;;
73428;SDS011;61643;49.564;17.412;2022-08-11T16:44:13;2.13;;;0.93;;
73428;SDS011;61643;49.564;17.412;2022-08-11T16:47:00;5.60;;;1.30;;
73428;SDS011;61643;49.564;17.412;2022-08-11T16:49:35;2.92;;;1.20;;
73428;SDS011;61643;49.564;17.412;2022-08-11T16:52:07;2.55;;;1.25;;
73428;SDS011;61643;49.564;17.412;2022-08-11T16:54:36;3.53;;;1.00;;
73428;SDS011;61643;49.564;17.412;2022-08-11T16:57:03;1.50;;;0.82;;
73428;SDS011;61643;49.564;17.412;2022-08-11T16:59:52;2.10;;;0.85;;
73428;SDS011;61643;49.564;17.412;2022-08-11T17:02:22;2.13;;;1.15;;
73428;SDS011;61643;49.564;17.412;2022-08-11T17:05:11;0.98;;;0.90;;
73428;SDS011;61643;49.564;17.412;2022-08-11T17:08:00;5.53;;;0.93;;
73428;SDS011;61643;49.564;17.412;2022-08-11T17:10:56;8.48;;;1.60;;
73428;SDS011;61643;49.564;17.412;2022-08-11T17:13:45;4.90;;;1.55;;
73428;SDS011;61643;49.564;17.412;2022-08-11T17:16:15;3.30;;;1.13;;
73428;SDS011;61643;49.564;17.412;2022-08-11T17:18:49;3.78;;;1.40;;
73428;SDS011;61643;49.564;17.412;2022-08-11T17:21:22;5.90;;;1.30;;
73428;SDS011;61643;49.564;17.412;2022-08-11T17:24:03;1.60;;;1.00;;
73428;SDS011;61643;49.564;17.412;2022-08-11T17:26:33;2.17;;;1.13;;
73428;SDS011;61643;49.564;17.412;2022-08-11T17:29:23;5.45;;;1.27;;
73428;SDS011;61643;49.564;17.412;2022-08-11T17:31:51;4.50;;;1.13;;
73428;SDS011;61643;49.564;17.412;2022-08-11T17:34:36;1.83;;;1.10;;
73428;SDS011;61643;49.564;17.412;2022-08-11T17:37:22;3.83;;;1.30;;
73428;SDS011;61643;49.564;17.412;2022-08-11T17:39:49;2.92;;;1.20;;
73428;SDS011;61643;49.564;17.412;2022-08-11T17:42:15;4.20;;;1.00;;
73428;SDS011;61643;49.564;17.412;2022-08-11T17:45:00;1.40;;;1.00;;
73428;SDS011;61643;49.564;17.412;2022-08-11T17:47:45;4.57;;;0.90;;
73428;SDS011;61643;49.564;17.412;2022-08-11T17:50:31;3.45;;;0.80;;
73428;SDS011;61643;49.564;17.412;2022-08-11T17:52:58;2.65;;;1.13;;
73428;SDS011;61643;49.564;17.412;2022-08-11T17:55:43;1.00;;;0.70;;
73428;SDS011;61643;49.564;17.412;2022-08-11T18:01:17;1.75;;;0.63;;
73428;SDS011;61643;49.564;17.412;2022-08-11T18:03:45;2.08;;;0.80;;
73428;SDS011;61643;49.564;17.412;2022-08-11T18:06:11;2.10;;;0.77;;
73428;SDS011;61643;49.564;17.412;2022-08-11T18:08:39;1.17;;;0.70;;
73428;SDS011;61643;49.564;17.412;2022-08-11T18:11:26;0.65;;;0.57;;
73428;SDS011;61643;49.564;17.412;2022-08-11T18:14:14;2.20;;;0.70;;
73428;SDS011;61643;49.564;17.412;2022-08-11T18:16:59;2.35;;;0.60;;
73428;SDS011;61643;49.564;17.412;2022-08-11T18:19:43;4.63;;;1.25;;
73428;SDS011;61643;49.564;17.412;2022-08-11T18:22:31;1.65;;;0.70;;
73428;SDS011;61643;49.564;17.412;2022-08-11T18:25:28;0.88;;;0.80;;
73428;SDS011;61643;49.564;17.412;2022-08-11T18:28:16;2.35;;;1.05;;
73428;SDS011;61643;49.564;17.412;2022-08-11T18:31:05;0.70;;;0.70;;
73428;SDS011;61643;49.564;17.412;2022-08-11T18:33:55;1.35;;;0.47;;
73428;SDS011;61643;49.564;17.412;2022-08-11T18:36:44;0.50;;;0.50;;
73428;SDS011;61643;49.564;17.412;2022-08-11T18:39:34;0.63;;;0.50;;
73428;SDS011;61643;49.564;17.412;2022-08-11T18:42:25;0.50;;;0.30;;
73428;SDS011;61643;49.564;17.412;2022-08-11T18:45:12;0.50;;;0.45;;
73428;SDS011;61643;49.564;17.412;2022-08-11T18:48:02;0.98;;;0.50;;
73428;SDS011;61643;49.564;17.412;2022-08-11T18:50:52;0.95;;;0.55;;
73428;SDS011;61643;49.564;17.412;2022-08-11T18:53:39;0.40;;;0.40;;
73428;SDS011;61643;49.564;17.412;2022-08-11T18:56:26;0.43;;;0.43;;
73428;SDS011;61643;49.564;17.412;2022-08-11T18:59:12;0.70;;;0.55;;
73428;SDS011;61643;49.564;17.412;2022-08-11T19:02:00;0.40;;;0.40;;
73428;SDS011;61643;49.564;17.412;2022-08-11T19:07:30;0.40;;;0.40;;
73428;SDS011;61643;49.564;17.412;2022-08-11T19:10:16;0.88;;;0.47;;
73428;SDS011;61643;49.564;17.412;2022-08-11T19:13:03;4.03;;;0.70;;
73428;SDS011;61643;49.564;17.412;2022-08-11T19:15:50;0.60;;;0.50;;
73428;SDS011;61643;49.564;17.412;2022-08-11T19:18:37;0.85;;;0.40;;
73428;SDS011;61643;49.564;17.412;2022-08-11T19:21:22;1.30;;;0.55;;
73428;SDS011;61643;49.564;17.412;2022-08-11T19:26:52;0.80;;;0.47;;
73428;SDS011;61643;49.564;17.412;2022-08-11T19:29:37;0.30;;;0.30;;
73428;SDS011;61643;49.564;17.412;2022-08-11T19:32:23;0.40;;;0.40;;
73428;SDS011;61643;49.564;17.412;2022-08-11T19:37:53;0.75;;;0.50;;
73428;SDS011;61643;49.564;17.412;2022-08-11T19:43:23;0.50;;;0.50;;
73428;SDS011;61643;49.564;17.412;2022-08-11T19:46:10;0.98;;;0.60;;
73428;SDS011;61643;49.564;17.412;2022-08-11T19:48:54;0.60;;;0.60;;
73428;SDS011;61643;49.564;17.412;2022-08-11T19:51:41;0.50;;;0.50;;
73428;SDS011;61643;49.564;17.412;2022-08-11T19:54:28;1.02;;;0.50;;
73428;SDS011;61643;49.564;17.412;2022-08-11T19:57:14;0.50;;;0.50;;
73428;SDS011;61643;49.564;17.412;2022-08-11T20:00:00;0.73;;;0.50;;
73428;SDS011;61643;49.564;17.412;2022-08-11T20:02:44;0.77;;;0.50;;
73428;SDS011;61643;49.564;17.412;2022-08-11T20:05:29;0.50;;;0.50;;
73428;SDS011;61643;49.564;17.412;2022-08-11T20:08:15;0.60;;;0.60;;